Lurin, Peru
Current Conditions -  °F | °C
As of 11:00 AM on Wednesday 26 Nov 2014 (Local Time) from SPIM Reporting Station
Broken Clouds Broken Clouds  
Wind Chill: 73°   Ceiling: 2100
Heat Index: 73°   Visibility: 6mi
Dew Point: 63°   Wind: 7mph
Humidity: 69%   Direction: 230°SW
Pressure: 29.97"   Gusts: NA
Location:  12.32°S, 76.25°W
Report Text: SPIM 261600Z 23006KT 160V280 9999 BKN021 23/17 Q1015 NOSIG RMK BIRD HAZARD RWY 15 PP000
Loading
Personal Weather Stations






























Interactive Weather Map New forecast layout! Learn more

10-Day Weather Forecast

Advertisements
Track Severe Weather on mobile